Time;durP1;ratioP1;P1;durP2;ratioP2;P2;SDS_P1;SDS_P2;PMS_P1;PMS_P2;Temp;Humidity;BMP_temperature;BMP_pressure;BME280_temperature;BME280_humidity;BME280_pressure;Samples;Min_cycle;Max_cycle;Signal;HPM_P1;HPM_P2
2021/06/30 00:02:16;;;;;;;12.98;4.47;;;;;;;;;;5072983;28;20459;-71
2021/06/30 00:04:42;;;;;;;15.95;4.05;;;;;;;;;;5072454;28;20025;-69
2021/06/30 00:07:09;;;;;;;14.60;3.83;;;;;;;;;;5054649;28;20021;-69
2021/06/30 00:09:35;;;;;;;17.48;3.88;;;;;;;;;;5072768;28;20060;-69
2021/06/30 00:12:01;;;;;;;14.77;4.50;;;;;;;;;;5072810;28;20020;-70
2021/06/30 00:14:27;;;;;;;15.75;4.20;;;;;;;;;;5063894;28;20028;-70
2021/06/30 00:16:53;;;;;;;12.90;4.65;;;;;;;;;;5052698;28;20029;-71
2021/06/30 00:19:19;;;;;;;8.85;4.28;;;;;;;;;;5052817;28;20563;-70
2021/06/30 00:21:46;;;;;;;10.18;3.88;;;;;;;;;;5052780;28;20013;-71
2021/06/30 00:24:12;;;;;;;10.38;3.75;;;;;;;;;;5052597;28;20536;-71
2021/06/30 00:26:39;;;;;;;8.73;3.13;;;;;;;;;;5051255;28;20035;-70
2021/06/30 00:29:06;;;;;;;19.00;3.70;;;;;;;;;;5052327;28;20036;-71
2021/06/30 00:31:33;;;;;;;20.63;4.15;;;;;;;;;;5051051;28;20029;-70
2021/06/30 00:34:02;;;;;;;15.10;4.13;;;;;;;;;;5061049;28;20028;-72
2021/06/30 00:36:32;;;;;;;12.77;4.35;;;;;;;;;;5071991;28;20509;-71
2021/06/30 00:38:59;;;;;;;18.02;4.10;;;;;;;;;;5053960;28;20020;-71
2021/06/30 00:41:25;;;;;;;10.52;3.70;;;;;;;;;;5071733;28;20033;-71
2021/06/30 00:43:52;;;;;;;8.75;3.63;;;;;;;;;;5070588;28;20016;-71
2021/06/30 00:46:28;;;;;;;13.65;3.33;;;;;;;;;;5071882;28;20099;-71
2021/06/30 00:48:54;;;;;;;10.70;3.88;;;;;;;;;;5071411;28;20116;-71
2021/06/30 00:51:20;;;;;;;14.77;3.55;;;;;;;;;;5066056;28;20021;-71
2021/06/30 00:53:46;;;;;;;16.77;3.53;;;;;;;;;;5051243;28;20037;-71
2021/06/30 00:56:14;;;;;;;31.70;3.83;;;;;;;;;;5051767;28;20049;-71
2021/06/30 00:58:40;;;;;;;17.50;3.35;;;;;;;;;;5051812;28;20474;-71
2021/06/30 01:01:07;;;;;;;24.70;3.90;;;;;;;;;;5051751;28;20029;-71
2021/06/30 01:03:33;;;;;;;22.00;3.03;;;;;;;;;;5050386;28;20385;-72
2021/06/30 01:05:59;;;;;;;21.90;3.42;;;;;;;;;;5051650;28;20100;-71
2021/06/30 01:08:25;;;;;;;18.38;2.75;;;;;;;;;;5067970;28;20031;-71
2021/06/30 01:10:51;;;;;;;24.92;3.05;;;;;;;;;;5091647;28;20028;-71
2021/06/30 01:13:17;;;;;;;19.23;3.95;;;;;;;;;;5091734;28;20020;-71
2021/06/30 01:15:53;;;;;;;22.42;3.20;;;;;;;;;;5071799;28;20012;-71
2021/06/30 01:18:21;;;;;;;22.25;2.95;;;;;;;;;;5071830;28;20110;-71
2021/06/30 01:20:47;;;;;;;17.95;2.78;;;;;;;;;;5071848;28;20023;-71
2021/06/30 01:23:13;;;;;;;23.25;2.78;;;;;;;;;;5070393;28;20427;-71
2021/06/30 01:25:39;;;;;;;18.73;3.05;;;;;;;;;;5070164;28;20025;-71
2021/06/30 01:28:05;;;;;;;18.52;2.45;;;;;;;;;;5071292;28;20020;-72
2021/06/30 01:30:31;;;;;;;17.88;2.08;;;;;;;;;;5071561;28;20032;-71
2021/06/30 01:32:57;;;;;;;15.32;2.72;;;;;;;;;;5071477;28;20048;-71
2021/06/30 01:35:24;;;;;;;18.70;2.15;;;;;;;;;;5071378;28;20421;-72
2021/06/30 01:37:50;;;;;;;15.75;2.20;;;;;;;;;;5071288;28;20024;-72
2021/06/30 01:40:18;;;;;;;20.13;2.15;;;;;;;;;;5071501;28;20096;-71
2021/06/30 01:42:44;;;;;;;17.00;2.13;;;;;;;;;;5068962;28;20081;-71
2021/06/30 01:45:11;;;;;;;14.30;2.25;;;;;;;;;;5064690;28;20036;-71
2021/06/30 01:47:38;;;;;;;18.50;2.40;;;;;;;;;;5052638;28;20051;-71
2021/06/30 01:50:04;;;;;;;16.05;2.60;;;;;;;;;;5070802;28;20564;-71
2021/06/30 01:52:30;;;;;;;19.35;2.65;;;;;;;;;;5052734;28;20025;-71
2021/06/30 01:54:56;;;;;;;23.58;2.47;;;;;;;;;;5070251;28;20047;-71
2021/06/30 01:57:22;;;;;;;7.55;2.30;;;;;;;;;;5070444;28;20029;-71
2021/06/30 01:59:48;;;;;;;15.05;2.25;;;;;;;;;;5052303;28;20028;-71
2021/06/30 02:02:14;;;;;;;13.05;2.05;;;;;;;;;;5070459;28;20016;-71
2021/06/30 02:04:41;;;;;;;11.40;2.03;;;;;;;;;;5070698;28;20086;-71
2021/06/30 02:07:07;;;;;;;14.50;2.67;;;;;;;;;;5070910;28;20025;-71
2021/06/30 02:09:34;;;;;;;10.25;1.98;;;;;;;;;;5070866;28;20036;-71
2021/06/30 02:12:01;;;;;;;10.70;2.13;;;;;;;;;;5052973;28;20408;-71
2021/06/30 02:14:27;;;;;;;10.32;1.90;;;;;;;;;;5065374;28;20035;-70
2021/06/30 02:16:53;;;;;;;8.63;2.42;;;;;;;;;;5070721;28;20048;-70
2021/06/30 02:19:19;;;;;;;8.63;1.77;;;;;;;;;;5052720;28;20531;-70
2021/06/30 02:21:45;;;;;;;9.95;1.80;;;;;;;;;;5055932;28;20017;-70
2021/06/30 02:24:11;;;;;;;9.65;1.60;;;;;;;;;;5074547;28;20021;-70
2021/06/30 02:26:37;;;;;;;10.77;1.50;;;;;;;;;;5074619;28;20020;-70
2021/06/30 02:29:04;;;;;;;3.67;1.27;;;;;;;;;;5074489;28;20021;-70
2021/06/30 02:31:30;;;;;;;14.30;1.80;;;;;;;;;;5074715;28;20031;-70
2021/06/30 02:33:57;;;;;;;9.90;1.35;;;;;;;;;;5074306;28;20017;-70
2021/06/30 02:36:23;;;;;;;11.70;2.03;;;;;;;;;;5074114;28;20028;-70
2021/06/30 02:38:49;;;;;;;5.60;1.42;;;;;;;;;;5074132;28;20028;-70
2021/06/30 02:41:15;;;;;;;16.20;1.75;;;;;;;;;;5074191;28;20373;-71
2021/06/30 02:43:42;;;;;;;6.32;1.42;;;;;;;;;;5074188;28;20040;-71
2021/06/30 02:46:09;;;;;;;12.05;1.50;;;;;;;;;;5071045;28;20027;-71
2021/06/30 02:48:35;;;;;;;8.55;1.55;;;;;;;;;;5074054;28;20043;-71
2021/06/30 02:51:01;;;;;;;11.05;1.63;;;;;;;;;;5056164;28;20017;-71
2021/06/30 02:53:27;;;;;;;10.80;1.50;;;;;;;;;;5074260;28;20032;-71
2021/06/30 02:55:53;;;;;;;6.97;1.20;;;;;;;;;;5073583;28;20443;-71
2021/06/30 02:58:20;;;;;;;6.03;1.40;;;;;;;;;;5073955;28;20029;-72
2021/06/30 03:00:46;;;;;;;8.50;1.77;;;;;;;;;;5074061;28;20024;-70
2021/06/30 03:03:12;;;;;;;4.60;1.30;;;;;;;;;;5073792;28;20028;-71
2021/06/30 03:05:38;;;;;;;6.20;1.40;;;;;;;;;;5073591;28;20112;-71
2021/06/30 03:08:04;;;;;;;9.07;1.38;;;;;;;;;;5073702;28;20032;-71
2021/06/30 03:10:30;;;;;;;6.47;1.17;;;;;;;;;;5073423;28;20029;-71
2021/06/30 03:12:56;;;;;;;4.90;1.30;;;;;;;;;;5073476;28;20021;-71
2021/06/30 03:15:22;;;;;;;7.88;1.45;;;;;;;;;;5073343;28;20028;-72
2021/06/30 03:17:48;;;;;;;5.85;1.30;;;;;;;;;;5073449;28;20507;-71
2021/06/30 03:20:17;;;;;;;10.27;1.40;;;;;;;;;;5055368;28;20142;-71
2021/06/30 03:22:44;;;;;;;7.53;1.15;;;;;;;;;;5055514;28;20028;-71
2021/06/30 03:25:11;;;;;;;4.07;1.50;;;;;;;;;;5055711;28;20499;-71
2021/06/30 03:27:37;;;;;;;3.35;1.00;;;;;;;;;;5073086;28;20031;-70
2021/06/30 03:30:04;;;;;;;11.57;1.60;;;;;;;;;;5073252;28;20123;-71
2021/06/30 03:32:30;;;;;;;5.78;1.52;;;;;;;;;;5072127;28;20021;-71
2021/06/30 03:34:56;;;;;;;6.00;1.55;;;;;;;;;;5055189;28;20021;-71
2021/06/30 03:37:22;;;;;;;6.55;1.27;;;;;;;;;;5073320;28;20060;-71
2021/06/30 03:39:49;;;;;;;5.68;1.27;;;;;;;;;;5073177;28;20024;-71
2021/06/30 03:42:15;;;;;;;7.90;1.20;;;;;;;;;;5072548;28;20017;-72
2021/06/30 03:44:41;;;;;;;5.15;1.30;;;;;;;;;;5054495;28;20032;-71
2021/06/30 03:47:07;;;;;;;4.03;1.13;;;;;;;;;;5072228;28;20047;-70
2021/06/30 03:49:33;;;;;;;6.45;1.40;;;;;;;;;;5072267;28;20039;-70
2021/06/30 03:52:00;;;;;;;4.80;1.30;;;;;;;;;;5054509;28;20858;-71
2021/06/30 03:54:27;;;;;;;4.07;1.48;;;;;;;;;;5070933;28;20032;-71
2021/06/30 03:56:53;;;;;;;8.45;1.10;;;;;;;;;;5072244;28;20025;-71
2021/06/30 03:59:20;;;;;;;7.43;1.20;;;;;;;;;;5054642;28;20048;-71
2021/06/30 04:01:46;;;;;;;4.72;1.50;;;;;;;;;;5072647;28;20036;-71
2021/06/30 04:04:13;;;;;;;5.60;1.33;;;;;;;;;;5054684;28;20024;-71
2021/06/30 04:06:40;;;;;;;5.53;1.38;;;;;;;;;;5072421;28;20121;-71
2021/06/30 04:09:06;;;;;;;8.07;1.20;;;;;;;;;;5054701;28;20066;-71
2021/06/30 04:11:33;;;;;;;5.43;1.30;;;;;;;;;;5072704;28;20106;-71
2021/06/30 04:13:59;;;;;;;4.88;1.40;;;;;;;;;;5067192;28;20025;-71
2021/06/30 04:16:25;;;;;;;5.97;1.20;;;;;;;;;;5052155;28;20020;-71
2021/06/30 04:18:51;;;;;;;11.93;1.90;;;;;;;;;;5052126;28;20105;-71
2021/06/30 04:21:18;;;;;;;10.30;1.40;;;;;;;;;;5052211;28;20548;-71
2021/06/30 04:23:44;;;;;;;6.90;1.20;;;;;;;;;;5052177;28;20079;-71
2021/06/30 04:26:10;;;;;;;7.15;1.30;;;;;;;;;;5050845;28;20024;-71
2021/06/30 04:28:36;;;;;;;5.20;1.13;;;;;;;;;;5052062;28;20032;-71
2021/06/30 04:31:02;;;;;;;5.80;1.45;;;;;;;;;;5052143;28;20060;-70
2021/06/30 04:33:30;;;;;;;4.45;1.33;;;;;;;;;;5052228;28;20029;-70
2021/06/30 04:35:57;;;;;;;5.15;1.00;;;;;;;;;;5051945;28;20017;-70
2021/06/30 04:38:25;;;;;;;5.45;1.23;;;;;;;;;;5050881;28;20518;-70
2021/06/30 04:40:51;;;;;;;8.82;1.30;;;;;;;;;;5052176;28;20480;-70
2021/06/30 04:43:17;;;;;;;7.45;1.60;;;;;;;;;;5051857;28;20025;-71
2021/06/30 04:45:43;;;;;;;7.63;1.38;;;;;;;;;;5055387;28;20103;-71
2021/06/30 04:48:09;;;;;;;5.60;1.40;;;;;;;;;;5072025;28;20024;-71
2021/06/30 04:50:35;;;;;;;5.53;1.38;;;;;;;;;;5071816;28;20056;-70
2021/06/30 04:53:02;;;;;;;7.47;1.30;;;;;;;;;;5071742;28;20511;-71
2021/06/30 04:55:28;;;;;;;4.70;1.42;;;;;;;;;;5071585;28;20045;-71
2021/06/30 04:57:54;;;;;;;8.57;1.48;;;;;;;;;;5071834;28;20028;-72
2021/06/30 05:00:20;;;;;;;11.85;1.80;;;;;;;;;;5071766;28;20376;-72
2021/06/30 05:02:46;;;;;;;4.85;1.30;;;;;;;;;;5071883;28;20027;-72
2021/06/30 05:05:14;;;;;;;5.35;1.55;;;;;;;;;;5071808;28;20031;-71
2021/06/30 05:07:40;;;;;;;3.88;1.38;;;;;;;;;;5071551;28;20062;-71
2021/06/30 05:10:06;;;;;;;4.60;1.55;;;;;;;;;;5070136;28;20041;-71
2021/06/30 05:12:32;;;;;;;12.73;1.58;;;;;;;;;;5071507;28;20016;-72
2021/06/30 05:14:59;;;;;;;3.80;1.48;;;;;;;;;;5070141;28;20024;-71
2021/06/30 05:17:25;;;;;;;6.55;1.63;;;;;;;;;;5071590;28;20048;-71
2021/06/30 05:19:51;;;;;;;13.18;2.00;;;;;;;;;;5069862;28;20021;-71
2021/06/30 05:22:17;;;;;;;8.30;1.55;;;;;;;;;;5069902;28;20024;-71
2021/06/30 05:24:43;;;;;;;3.78;1.42;;;;;;;;;;5071481;28;20103;-72
2021/06/30 05:27:10;;;;;;;4.88;1.13;;;;;;;;;;5069896;28;20029;-71
2021/06/30 05:29:36;;;;;;;6.57;1.60;;;;;;;;;;5071199;28;20032;-71
2021/06/30 05:32:02;;;;;;;6.32;1.60;;;;;;;;;;5070962;28;20025;-70
2021/06/30 05:34:28;;;;;;;6.25;1.35;;;;;;;;;;5071324;28;20025;-71
2021/06/30 05:36:54;;;;;;;8.85;1.65;;;;;;;;;;5071290;28;20017;-71
2021/06/30 05:39:21;;;;;;;7.60;1.70;;;;;;;;;;5070994;28;20070;-71
2021/06/30 05:41:47;;;;;;;12.32;1.60;;;;;;;;;;5069553;28;20028;-70
2021/06/30 05:44:14;;;;;;;10.27;1.50;;;;;;;;;;5069436;28;20017;-71
2021/06/30 05:46:41;;;;;;;8.43;1.42;;;;;;;;;;5070814;28;20078;-71
2021/06/30 05:49:07;;;;;;;6.82;1.52;;;;;;;;;;5070853;28;20431;-70
2021/06/30 05:51:33;;;;;;;7.70;1.23;;;;;;;;;;5071226;28;20028;-70
2021/06/30 05:54:00;;;;;;;6.25;1.60;;;;;;;;;;5070914;28;20134;-70
2021/06/30 05:56:26;;;;;;;4.45;1.40;;;;;;;;;;5073771;28;20121;-70
2021/06/30 05:58:52;;;;;;;6.50;1.50;;;;;;;;;;5073957;28;20056;-71
2021/06/30 06:01:18;;;;;;;7.78;1.50;;;;;;;;;;5075345;28;20095;-71
2021/06/30 06:03:45;;;;;;;7.13;2.08;;;;;;;;;;5075170;28;20031;-71
2021/06/30 06:06:11;;;;;;;8.52;1.75;;;;;;;;;;5073927;28;20024;-71
2021/06/30 06:08:38;;;;;;;5.45;1.35;;;;;;;;;;5075182;28;20054;-71
2021/06/30 06:11:10;;;;;;;6.28;1.58;;;;;;;;;;5075148;28;20017;-70
2021/06/30 06:13:36;;;;;;;9.10;1.42;;;;;;;;;;5071871;28;20039;-71
2021/06/30 06:16:02;;;;;;;10.10;1.48;;;;;;;;;;5054894;28;20078;-71
2021/06/30 06:18:28;;;;;;;9.88;1.20;;;;;;;;;;5055071;28;20017;-71
2021/06/30 06:20:54;;;;;;;5.05;1.40;;;;;;;;;;5054541;28;20021;-70
2021/06/30 06:23:20;;;;;;;6.60;1.38;;;;;;;;;;5054492;28;20021;-71
2021/06/30 06:25:46;;;;;;;7.78;1.60;;;;;;;;;;5054042;28;20600;-71
2021/06/30 06:28:13;;;;;;;5.20;1.30;;;;;;;;;;5054517;28;20064;-70
2021/06/30 06:30:39;;;;;;;4.93;1.48;;;;;;;;;;5054497;28;20159;-71
2021/06/30 06:33:05;;;;;;;4.95;1.20;;;;;;;;;;5054448;28;20064;-71
2021/06/30 06:35:31;;;;;;;4.18;1.30;;;;;;;;;;5058927;28;20028;-71
2021/06/30 06:37:57;;;;;;;10.15;1.58;;;;;;;;;;5074462;28;20029;-71
2021/06/30 06:40:24;;;;;;;4.60;1.10;;;;;;;;;;5074443;28;20056;-71
2021/06/30 06:42:51;;;;;;;5.35;1.42;;;;;;;;;;5074407;28;20029;-71
2021/06/30 06:45:17;;;;;;;4.60;1.20;;;;;;;;;;5056069;28;20473;-71
2021/06/30 06:47:43;;;;;;;5.00;1.60;;;;;;;;;;5073871;28;20024;-71
2021/06/30 06:50:10;;;;;;;5.63;1.63;;;;;;;;;;5073896;28;20074;-71
2021/06/30 06:52:36;;;;;;;6.30;1.50;;;;;;;;;;5074015;28;20025;-72
2021/06/30 06:55:03;;;;;;;9.93;1.50;;;;;;;;;;5073770;28;20101;-71
2021/06/30 06:57:29;;;;;;;6.70;1.08;;;;;;;;;;5073846;28;20111;-71
2021/06/30 06:59:55;;;;;;;3.58;1.13;;;;;;;;;;5074285;28;20036;-71
2021/06/30 07:02:21;;;;;;;7.15;1.20;;;;;;;;;;5074113;28;20027;-70
2021/06/30 07:04:47;;;;;;;3.42;1.15;;;;;;;;;;5073548;28;20028;-71
2021/06/30 07:07:13;;;;;;;6.35;1.00;;;;;;;;;;5073350;28;20027;-71
2021/06/30 07:09:40;;;;;;;7.25;1.10;;;;;;;;;;5073524;28;20118;-71
2021/06/30 07:12:06;;;;;;;6.30;1.20;;;;;;;;;;5074075;28;20020;-71
2021/06/30 07:14:32;;;;;;;5.40;1.30;;;;;;;;;;5064606;28;20673;-71
2021/06/30 07:16:58;;;;;;;4.25;1.08;;;;;;;;;;5064397;28;20029;-71
2021/06/30 07:19:24;;;;;;;5.13;1.20;;;;;;;;;;5055981;28;20029;-71
2021/06/30 07:21:50;;;;;;;32.45;2.13;;;;;;;;;;5073658;28;20087;-70
2021/06/30 07:24:17;;;;;;;10.68;1.35;;;;;;;;;;5073684;28;20107;-70
2021/06/30 07:26:43;;;;;;;15.40;1.23;;;;;;;;;;5073612;28;20432;-70
2021/06/30 07:29:09;;;;;;;5.97;1.08;;;;;;;;;;5073585;28;20479;-70
2021/06/30 07:31:36;;;;;;;15.98;2.10;;;;;;;;;;5055690;28;20084;-71
2021/06/30 07:34:03;;;;;;;7.30;1.25;;;;;;;;;;5073400;28;20032;-70
2021/06/30 07:36:29;;;;;;;5.32;1.70;;;;;;;;;;5055259;28;20025;-70
2021/06/30 07:38:55;;;;;;;6.10;2.03;;;;;;;;;;5073436;28;20044;-70
2021/06/30 07:41:21;;;;;;;8.18;2.00;;;;;;;;;;5073143;28;20027;-70
2021/06/30 07:43:47;;;;;;;13.25;2.10;;;;;;;;;;5073191;28;20077;-70
2021/06/30 07:46:13;;;;;;;7.75;1.60;;;;;;;;;;5073254;28;20077;-71
2021/06/30 07:48:39;;;;;;;8.68;1.50;;;;;;;;;;5073198;28;20028;-70
2021/06/30 07:51:05;;;;;;;8.50;1.42;;;;;;;;;;5073254;28;20029;-70
2021/06/30 07:53:32;;;;;;;4.35;1.45;;;;;;;;;;5054586;28;20040;-70
2021/06/30 07:55:58;;;;;;;6.60;1.20;;;;;;;;;;5072706;28;20509;-70
2021/06/30 07:58:24;;;;;;;5.47;1.55;;;;;;;;;;5054753;28;20036;-70
2021/06/30 08:00:50;;;;;;;4.63;1.00;;;;;;;;;;5072901;28;20491;-70
2021/06/30 08:03:16;;;;;;;6.97;1.13;;;;;;;;;;5072816;28;20031;-70
2021/06/30 08:05:42;;;;;;;3.95;1.20;;;;;;;;;;5072741;28;20025;-71
2021/06/30 08:08:08;;;;;;;6.70;1.17;;;;;;;;;;5072641;28;20024;-70
2021/06/30 08:10:34;;;;;;;5.93;1.13;;;;;;;;;;5072685;28;20074;-71
2021/06/30 08:13:01;;;;;;;6.07;1.48;;;;;;;;;;5072597;28;20024;-71
2021/06/30 08:15:27;;;;;;;4.03;1.10;;;;;;;;;;5037621;28;20036;-71
2021/06/30 08:17:53;;;;;;;6.07;1.10;;;;;;;;;;5052230;28;20473;-71
2021/06/30 08:20:19;;;;;;;4.20;1.10;;;;;;;;;;5052395;28;20381;-71
2021/06/30 08:22:45;;;;;;;16.52;1.30;;;;;;;;;;5052354;28;20108;-71
2021/06/30 08:25:11;;;;;;;2.83;1.00;;;;;;;;;;5051244;28;20025;-71
2021/06/30 08:27:38;;;;;;;4.22;1.25;;;;;;;;;;5052386;28;20040;-71
2021/06/30 08:30:05;;;;;;;3.47;0.93;;;;;;;;;;5052536;28;20053;-71
2021/06/30 08:32:31;;;;;;;14.30;2.35;;;;;;;;;;5052422;28;20044;-71
2021/06/30 08:34:57;;;;;;;5.80;2.53;;;;;;;;;;5052409;28;20028;-70
2021/06/30 08:37:25;;;;;;;5.45;2.63;;;;;;;;;;5065818;28;20034;-71
2021/06/30 08:39:51;;;;;;;11.48;2.35;;;;;;;;;;5072336;28;20066;-71
2021/06/30 08:42:18;;;;;;;9.13;3.28;;;;;;;;;;5072315;28;20021;-71
2021/06/30 08:44:44;;;;;;;6.88;3.08;;;;;;;;;;5071966;28;20074;-70
2021/06/30 08:47:10;;;;;;;8.75;2.20;;;;;;;;;;5071903;28;20019;-71
2021/06/30 08:49:40;;;;;;;6.78;2.38;;;;;;;;;;5072098;28;20497;-70
2021/06/30 08:52:07;;;;;;;5.10;1.92;;;;;;;;;;5072233;28;20028;-71
2021/06/30 08:54:33;;;;;;;16.30;1.83;;;;;;;;;;5072285;28;20115;-71
2021/06/30 08:57:00;;;;;;;7.18;1.40;;;;;;;;;;5056002;28;20040;-70
2021/06/30 08:59:26;;;;;;;4.53;1.42;;;;;;;;;;5052125;28;20017;-70
2021/06/30 09:01:52;;;;;;;4.32;1.80;;;;;;;;;;5051847;28;20025;-71
2021/06/30 09:04:19;;;;;;;9.40;2.30;;;;;;;;;;5050700;28;20025;-72
2021/06/30 09:06:45;;;;;;;5.88;1.80;;;;;;;;;;5052453;28;20101;-72
2021/06/30 09:09:15;;;;;;;9.32;1.80;;;;;;;;;;5071542;28;20484;-72
2021/06/30 09:11:52;;;;;;;5.88;1.60;;;;;;;;;;5071942;28;20103;-72
2021/06/30 09:14:27;;;;;;;41.05;1.98;;;;;;;;;;5053256;28;20020;-72
2021/06/30 09:16:57;;;;;;;14.57;1.70;;;;;;;;;;5071605;28;20020;-71
2021/06/30 09:19:44;;;;;;;4.40;1.10;;;;;;;;;;5071777;28;20021;-71
2021/06/30 09:22:10;;;;;;;7.60;1.00;;;;;;;;;;5057375;28;20068;-71
2021/06/30 09:24:39;;;;;;;4.63;1.00;;;;;;;;;;5071578;28;20051;-70
2021/06/30 09:27:05;;;;;;;3.38;1.00;;;;;;;;;;5071248;28;20029;-71
2021/06/30 09:29:32;;;;;;;7.30;1.27;;;;;;;;;;5071176;28;20162;-71
2021/06/30 09:31:58;;;;;;;6.95;0.93;;;;;;;;;;5074851;28;20019;-70
2021/06/30 09:34:26;;;;;;;3.63;1.02;;;;;;;;;;5075410;28;20375;-72
2021/06/30 09:37:01;;;;;;;5.50;1.10;;;;;;;;;;5075611;28;20067;-72
2021/06/30 09:39:27;;;;;;;3.65;1.13;;;;;;;;;;5075319;28;20021;-70
2021/06/30 09:42:08;;;;;;;7.68;1.27;;;;;;;;;;5075415;28;20023;-70
2021/06/30 09:44:35;;;;;;;4.72;0.93;;;;;;;;;;5075399;28;20032;-70
2021/06/30 09:47:01;;;;;;;8.75;0.98;;;;;;;;;;5075328;28;20480;-71
2021/06/30 09:49:27;;;;;;;5.13;1.00;;;;;;;;;;5073686;28;20043;-70
2021/06/30 09:52:15;;;;;;;4.07;1.35;;;;;;;;;;5075130;28;20017;-71
2021/06/30 09:54:42;;;;;;;6.80;0.90;;;;;;;;;;5056720;28;20028;-72
2021/06/30 09:57:15;;;;;;;1.75;0.70;;;;;;;;;;5075047;28;20025;-71
2021/06/30 09:59:46;;;;;;;2.75;0.95;;;;;;;;;;5075088;28;20035;-71
2021/06/30 10:02:17;;;;;;;4.70;1.17;;;;;;;;;;5057149;28;20013;-71
2021/06/30 10:04:44;;;;;;;4.13;1.00;;;;;;;;;;5075345;28;20024;-71
2021/06/30 10:07:14;;;;;;;3.17;0.90;;;;;;;;;;5056963;28;20066;-70
2021/06/30 10:09:42;;;;;;;7.88;1.40;;;;;;;;;;5056574;28;20032;-70
2021/06/30 10:12:12;;;;;;;13.38;1.80;;;;;;;;;;5074339;28;20500;-70
2021/06/30 10:14:40;;;;;;;7.53;1.70;;;;;;;;;;5074777;28;20078;-72
2021/06/30 10:17:07;;;;;;;4.05;1.27;;;;;;;;;;5074517;28;20020;-72
2021/06/30 10:19:34;;;;;;;6.38;1.27;;;;;;;;;;5075032;28;20381;-71
2021/06/30 10:22:00;;;;;;;5.45;1.38;;;;;;;;;;5074927;28;20021;-71
2021/06/30 10:24:26;;;;;;;8.05;1.45;;;;;;;;;;5074657;28;20029;-71
2021/06/30 10:26:53;;;;;;;4.97;0.85;;;;;;;;;;5056717;28;20017;-71
2021/06/30 10:29:23;;;;;;;2.53;0.90;;;;;;;;;;5076820;28;20036;-71
2021/06/30 10:31:49;;;;;;;3.33;1.02;;;;;;;;;;5074603;28;20097;-71
2021/06/30 10:34:15;;;;;;;2.47;0.88;;;;;;;;;;5074493;28;20357;-71
2021/06/30 10:37:00;;;;;;;7.05;0.95;;;;;;;;;;5073075;28;20088;-71
2021/06/30 10:39:35;;;;;;;5.78;0.80;;;;;;;;;;5073150;28;20036;-71
2021/06/30 10:42:15;;;;;;;3.97;1.13;;;;;;;;;;5073829;28;20047;-71
2021/06/30 10:44:46;;;;;;;2.33;0.70;;;;;;;;;;5058154;28;20104;-70
2021/06/30 10:47:30;;;;;;;9.05;1.10;;;;;;;;;;5054162;28;20683;-70
2021/06/30 10:50:15;;;;;;;7.80;0.85;;;;;;;;;;5053960;28;20397;-71
2021/06/30 10:52:41;;;;;;;6.32;0.90;;;;;;;;;;5054326;28;20056;-70
2021/06/30 10:55:27;;;;;;;2.80;0.90;;;;;;;;;;5053849;28;20446;-71
2021/06/30 11:00:38;;;;;;;7.13;0.85;;;;;;;;;;5054004;28;20083;-71
2021/06/30 11:03:22;;;;;;;3.85;0.90;;;;;;;;;;5054212;28;20067;-71
2021/06/30 11:05:49;;;;;;;4.18;0.85;;;;;;;;;;5053922;28;20025;-71
2021/06/30 11:08:34;;;;;;;4.07;1.50;;;;;;;;;;5061772;28;20099;-70
2021/06/30 11:11:00;;;;;;;4.05;1.05;;;;;;;;;;5073864;28;20055;-70
2021/06/30 11:13:44;;;;;;;5.63;1.27;;;;;;;;;;5073860;28;20027;-71
2021/06/30 11:16:11;;;;;;;11.77;2.72;;;;;;;;;;5072410;28;20538;-71
2021/06/30 11:18:43;;;;;;;6.78;1.85;;;;;;;;;;5073724;28;20380;-70
2021/06/30 11:21:11;;;;;;;5.35;1.50;;;;;;;;;;5073906;28;20025;-70
2021/06/30 11:23:41;;;;;;;3.30;1.17;;;;;;;;;;5073651;28;20540;-70
2021/06/30 11:26:26;;;;;;;13.65;2.38;;;;;;;;;;5073516;28;20028;-70
2021/06/30 11:28:52;;;;;;;4.07;1.27;;;;;;;;;;5073581;28;20071;-70
2021/06/30 11:31:27;;;;;;;4.53;1.27;;;;;;;;;;5073431;28;20024;-71
2021/06/30 11:34:03;;;;;;;3.33;1.05;;;;;;;;;;5072405;28;20019;-70
2021/06/30 11:36:36;;;;;;;3.95;1.25;;;;;;;;;;5073374;28;20126;-70
2021/06/30 11:39:07;;;;;;;2.72;0.85;;;;;;;;;;5074888;28;20016;-71
2021/06/30 11:41:43;;;;;;;4.50;1.05;;;;;;;;;;5087294;28;20052;-70
2021/06/30 11:44:10;;;;;;;5.97;1.00;;;;;;;;;;5076108;28;20099;-70
2021/06/30 11:46:37;;;;;;;2.53;0.90;;;;;;;;;;5054988;28;20044;-70
2021/06/30 11:49:03;;;;;;;3.33;0.85;;;;;;;;;;5073021;28;20024;-71
2021/06/30 11:51:29;;;;;;;4.93;1.05;;;;;;;;;;5055027;28;20021;-71
2021/06/30 11:53:56;;;;;;;5.03;1.08;;;;;;;;;;5071623;28;20028;-70
2021/06/30 11:56:35;;;;;;;1.95;0.80;;;;;;;;;;5053596;28;20056;-71
2021/06/30 11:59:04;;;;;;;3.33;0.98;;;;;;;;;;5052964;28;20028;-71
2021/06/30 12:01:31;;;;;;;3.58;1.00;;;;;;;;;;5052903;28;20104;-70
2021/06/30 12:04:17;;;;;;;2.00;0.77;;;;;;;;;;5052818;28;20083;-70
2021/06/30 12:06:45;;;;;;;7.80;0.93;;;;;;;;;;5052955;28;20033;-70
2021/06/30 12:09:24;;;;;;;8.27;1.02;;;;;;;;;;5051483;28;20021;-70
2021/06/30 12:11:58;;;;;;;4.60;0.85;;;;;;;;;;5062743;28;20104;-71
2021/06/30 12:14:31;;;;;;;5.43;1.08;;;;;;;;;;5071577;28;20016;-71
2021/06/30 12:16:57;;;;;;;3.92;0.80;;;;;;;;;;5058385;28;20024;-71
2021/06/30 12:19:35;;;;;;;10.02;1.00;;;;;;;;;;5051876;28;20028;-70
2021/06/30 12:22:02;;;;;;;9.25;1.65;;;;;;;;;;5062991;28;20070;-70
2021/06/30 12:24:29;;;;;;;5.40;1.20;;;;;;;;;;5067297;28;20020;-70
2021/06/30 12:26:58;;;;;;;6.25;1.55;;;;;;;;;;5052580;28;20098;-70
2021/06/30 12:29:25;;;;;;;4.18;1.40;;;;;;;;;;5052496;28;20043;-71
2021/06/30 12:31:51;;;;;;;5.72;1.33;;;;;;;;;;5052529;28;20523;-71
2021/06/30 12:34:17;;;;;;;6.00;1.50;;;;;;;;;;5053184;28;20033;-71
2021/06/30 12:36:43;;;;;;;9.45;1.40;;;;;;;;;;5066343;28;20023;-71
2021/06/30 12:39:21;;;;;;;4.03;1.23;;;;;;;;;;5073183;28;20082;-71
2021/06/30 12:41:51;;;;;;;5.15;1.00;;;;;;;;;;5058597;28;20032;-71
2021/06/30 12:44:17;;;;;;;5.07;2.35;;;;;;;;;;5054369;28;20119;-71
2021/06/30 12:46:43;;;;;;;5.32;1.40;;;;;;;;;;5072286;28;20016;-72
2021/06/30 12:49:16;;;;;;;5.88;1.33;;;;;;;;;;5071986;28;20024;-71
2021/06/30 12:51:44;;;;;;;6.70;1.63;;;;;;;;;;5072242;28;20073;-71
2021/06/30 12:54:12;;;;;;;6.05;1.20;;;;;;;;;;5045868;28;20041;-71
2021/06/30 12:56:46;;;;;;;14.48;1.38;;;;;;;;;;5051861;28;20049;-71
2021/06/30 12:59:16;;;;;;;6.57;1.58;;;;;;;;;;5051053;28;20059;-71
2021/06/30 13:01:43;;;;;;;5.40;1.20;;;;;;;;;;5051922;28;20446;-72
2021/06/30 13:04:10;;;;;;;11.77;1.17;;;;;;;;;;5051847;28;20029;-71
2021/06/30 13:06:36;;;;;;;5.40;1.50;;;;;;;;;;5051822;28;20533;-72
2021/06/30 13:09:15;;;;;;;5.25;1.25;;;;;;;;;;5051714;28;20025;-71
2021/06/30 13:11:49;;;;;;;8.65;1.75;;;;;;;;;;5050541;28;20032;-71
2021/06/30 13:14:16;;;;;;;9.13;1.40;;;;;;;;;;5051570;28;20028;-72
2021/06/30 13:16:58;;;;;;;6.25;1.27;;;;;;;;;;5051572;28;20059;-72
2021/06/30 13:19:29;;;;;;;5.45;1.55;;;;;;;;;;5050375;28;20017;-72
2021/06/30 13:22:00;;;;;;;4.57;1.10;;;;;;;;;;5051163;28;20035;-72
2021/06/30 13:24:32;;;;;;;4.70;1.10;;;;;;;;;;5049789;28;20275;-72
2021/06/30 13:35:27;;;;;;;6.18;1.15;;;;;;;;;;5051847;28;20416;-71
2021/06/30 13:37:56;;;;;;;4.63;1.10;;;;;;;;;;5051260;28;20017;-72
2021/06/30 13:40:23;;;;;;;9.07;1.30;;;;;;;;;;5051439;28;20116;-71
2021/06/30 13:42:50;;;;;;;9.55;1.60;;;;;;;;;;5051442;28;20017;-71
2021/06/30 13:45:16;;;;;;;11.07;1.85;;;;;;;;;;5051328;28;20029;-71
2021/06/30 13:47:43;;;;;;;4.97;1.48;;;;;;;;;;5051486;28;20048;-71
2021/06/30 13:50:10;;;;;;;7.15;1.30;;;;;;;;;;5051741;28;20120;-71
2021/06/30 13:52:36;;;;;;;9.07;1.50;;;;;;;;;;5051475;28;20017;-71
2021/06/30 13:55:03;;;;;;;5.75;1.20;;;;;;;;;;5051150;28;20075;-71
2021/06/30 13:57:29;;;;;;;4.22;1.23;;;;;;;;;;5050278;28;20087;-71
2021/06/30 13:59:55;;;;;;;8.48;1.65;;;;;;;;;;5066631;28;20017;-71
2021/06/30 14:02:21;;;;;;;9.15;1.40;;;;;;;;;;5071237;28;20469;-72
2021/06/30 14:04:47;;;;;;;7.40;1.33;;;;;;;;;;5053187;28;20051;-72
2021/06/30 14:07:13;;;;;;;7.15;1.20;;;;;;;;;;5070872;28;20021;-71
2021/06/30 14:09:39;;;;;;;4.88;1.48;;;;;;;;;;5053358;28;20028;-70
2021/06/30 14:12:08;;;;;;;8.88;1.13;;;;;;;;;;5071517;28;20082;-71
2021/06/30 14:14:34;;;;;;;7.97;1.60;;;;;;;;;;5071177;28;20020;-71
2021/06/30 14:17:00;;;;;;;7.15;1.40;;;;;;;;;;5054848;28;20054;-71
2021/06/30 14:19:26;;;;;;;12.07;1.27;;;;;;;;;;5074893;28;20024;-71
2021/06/30 14:21:52;;;;;;;9.02;1.30;;;;;;;;;;5074297;28;20024;-71
2021/06/30 14:24:18;;;;;;;6.88;1.27;;;;;;;;;;5074321;28;20024;-71
2021/06/30 14:26:45;;;;;;;10.38;1.58;;;;;;;;;;5074486;28;20031;-71
2021/06/30 14:29:11;;;;;;;14.27;1.60;;;;;;;;;;5074498;28;20055;-71
2021/06/30 14:31:38;;;;;;;11.55;1.60;;;;;;;;;;5058312;28;20554;-71
2021/06/30 14:34:07;;;;;;;10.68;1.33;;;;;;;;;;5054544;28;20047;-71
2021/06/30 14:36:33;;;;;;;5.97;1.50;;;;;;;;;;5064910;28;20028;-71
2021/06/30 14:38:59;;;;;;;7.50;1.38;;;;;;;;;;5056623;28;20090;-71
2021/06/30 14:41:26;;;;;;;5.38;1.30;;;;;;;;;;5074668;28;20027;-71
2021/06/30 14:43:52;;;;;;;7.93;1.40;;;;;;;;;;5074587;28;20059;-70
2021/06/30 14:46:18;;;;;;;7.25;1.30;;;;;;;;;;5074436;28;20052;-70
2021/06/30 14:48:44;;;;;;;4.45;1.20;;;;;;;;;;5074471;28;20031;-71
2021/06/30 14:51:10;;;;;;;4.68;1.08;;;;;;;;;;5074393;28;20032;-71
2021/06/30 14:53:36;;;;;;;5.18;1.30;;;;;;;;;;5074503;28;20457;-70
2021/06/30 14:56:03;;;;;;;5.68;1.40;;;;;;;;;;5055926;28;20431;-71